Time;durP1;ratioP1;P1;durP2;ratioP2;P2;SDS_P1;SDS_P2;PMS_P1;PMS_P2;Temp;Humidity;BMP_temperature;BMP_pressure;BME280_temperature;BME280_humidity;BME280_pressure;Samples;Min_cycle;Max_cycle;Signal;HPM_P1;HPM_P2
2022/10/15 00:01:36;;;;;;;;;;;18.40;62.80;;;;;;4993922;28;19918;-87
2022/10/15 00:04:01;;;;;;;;;;;18.30;62.70;;;;;;4974291;28;20425;-86
2022/10/15 00:06:27;;;;;;;;;;;18.30;62.90;;;;;;4991266;28;20278;-88
2022/10/15 00:08:52;;;;;;;;;;;18.20;62.90;;;;;;4991541;28;19914;-87
2022/10/15 00:11:20;;;;;;;;;;;18.20;63.10;;;;;;4973865;28;19926;-88
2022/10/15 00:13:45;;;;;;;;;;;18.20;63.30;;;;;;4991779;28;19952;-85
2022/10/15 00:16:12;;;;;;;;;;;18.20;63.80;;;;;;4991994;28;20036;-89
2022/10/15 00:18:38;;;;;;;;;;;18.20;64.30;;;;;;4990977;28;20332;-88
2022/10/15 00:21:08;;;;;;;;;;;18.20;64.70;;;;;;4991621;28;19918;-87
2022/10/15 00:23:34;;;;;;;;;;;18.30;64.90;;;;;;4992501;28;19920;-88
2022/10/15 00:26:05;;;;;;;;;;;18.30;65.00;;;;;;4974354;28;20373;-86
2022/10/15 00:28:31;;;;;;;;;;;18.40;65.10;;;;;;4991634;28;19960;-87
2022/10/15 00:31:00;;;;;;;;;;;18.40;65.10;;;;;;4974637;28;19918;-86
2022/10/15 00:33:26;;;;;;;;;;;18.50;65.10;;;;;;4974524;28;20321;-88
2022/10/15 00:36:01;;;;;;;;;;;18.50;65.00;;;;;;4991806;28;19922;-87
2022/10/15 00:38:27;;;;;;;;;;;18.50;64.90;;;;;;4992495;28;19918;-86
2022/10/15 00:40:53;;;;;;;;;;;18.60;64.80;;;;;;4973848;28;19928;-87
2022/10/15 00:43:38;;;;;;;;;;;18.50;64.80;;;;;;4974872;28;20346;-87
2022/10/15 00:46:03;;;;;;;;;;;18.50;64.80;;;;;;4974287;28;19917;-87
2022/10/15 00:48:30;;;;;;;;;;;18.60;64.80;;;;;;4991303;28;20250;-86
2022/10/15 00:50:56;;;;;;;;;;;18.60;64.90;;;;;;4992410;28;19921;-87
2022/10/15 00:53:21;;;;;;;;;;;18.60;64.80;;;;;;4992846;28;19925;-86
2022/10/15 00:55:49;;;;;;;;;;;18.70;64.90;;;;;;4991524;28;19918;-88
2022/10/15 00:58:26;;;;;;;;;;;18.70;65.00;;;;;;4991537;28;19921;-87
2022/10/15 01:00:52;;;;;;;;;;;18.80;65.10;;;;;;4992611;28;20301;-87
2022/10/15 01:03:18;;;;;;;;;;;18.90;65.10;;;;;;4976034;28;19925;-86
2022/10/15 01:05:45;;;;;;;;;;;19.00;65.20;;;;;;4974161;28;20341;-87
2022/10/15 01:08:10;;;;;;;;;;;19.10;65.20;;;;;;4974159;28;19914;-86
2022/10/15 01:10:54;;;;;;;;;;;19.20;65.20;;;;;;5005720;28;19925;-87
2022/10/15 01:13:27;;;;;;;;;;;19.20;65.20;;;;;;5011926;28;19910;-86
2022/10/15 01:16:01;;;;;;;;;;;19.30;65.20;;;;;;5014910;28;19924;-85
2022/10/15 01:18:29;;;;;;;;;;;19.40;65.10;;;;;;4975951;28;19925;-86
2022/10/15 01:21:00;;;;;;;;;;;19.40;65.00;;;;;;4994168;28;20024;-87
2022/10/15 01:23:28;;;;;;;;;;;19.50;65.10;;;;;;4977400;28;19917;-86
2022/10/15 01:25:54;;;;;;;;;;;19.50;65.10;;;;;;4994689;28;19925;-86
2022/10/15 01:28:29;;;;;;;;;;;19.50;65.10;;;;;;4995226;28;19913;-86
2022/10/15 01:30:58;;;;;;;;;;;19.50;65.00;;;;;;4978283;28;19933;-88
2022/10/15 01:33:31;;;;;;;;;;;19.50;65.00;;;;;;4995573;28;19921;-89
2022/10/15 01:36:07;;;;;;;;;;;19.50;65.00;;;;;;4995246;28;19917;-88
2022/10/15 01:38:45;;;;;;;;;;;19.60;65.00;;;;;;4995305;28;19929;-87
2022/10/15 01:41:11;;;;;;;;;;;19.60;65.00;;;;;;4994684;28;20008;-88
2022/10/15 01:43:50;;;;;;;;;;;19.70;65.00;;;;;;4976983;28;19953;-87
2022/10/15 01:46:20;;;;;;;;;;;19.70;64.90;;;;;;4980239;28;19948;-87
2022/10/15 01:48:47;;;;;;;;;;;19.70;64.90;;;;;;4994526;28;19984;-87
2022/10/15 01:51:14;;;;;;;;;;;19.70;64.80;;;;;;4976687;28;19925;-86
2022/10/15 01:53:40;;;;;;;;;;;19.70;64.70;;;;;;4977028;28;19914;-87
2022/10/15 01:56:08;;;;;;;;;;;19.70;64.70;;;;;;4995339;28;19918;-87
2022/10/15 01:58:35;;;;;;;;;;;19.70;64.70;;;;;;4994394;28;19922;-87
2022/10/15 02:01:01;;;;;;;;;;;19.70;64.60;;;;;;4979820;28;19965;-85
2022/10/15 02:03:26;;;;;;;;;;;19.70;64.60;;;;;;4976664;28;19917;-85
2022/10/15 02:05:57;;;;;;;;;;;19.70;64.50;;;;;;4976566;28;19914;-87
2022/10/15 02:08:32;;;;;;;;;;;19.70;64.50;;;;;;4994213;28;20336;-88
2022/10/15 02:11:00;;;;;;;;;;;19.70;64.50;;;;;;4980318;28;19976;-86
2022/10/15 02:13:40;;;;;;;;;;;19.70;64.60;;;;;;4995753;28;19914;-86
2022/10/15 02:16:24;;;;;;;;;;;19.70;64.50;;;;;;4993950;28;19922;-85
2022/10/15 02:18:49;;;;;;;;;;;19.70;64.50;;;;;;4978101;28;20009;-86
2022/10/15 02:21:17;;;;;;;;;;;19.70;64.50;;;;;;4976172;28;20012;-87
2022/10/15 02:23:42;;;;;;;;;;;19.60;64.20;;;;;;4977746;28;19948;-87
2022/10/15 02:26:09;;;;;;;;;;;19.50;64.10;;;;;;4993617;28;19961;-88
2022/10/15 02:28:36;;;;;;;;;;;19.50;64.00;;;;;;4976829;28;19941;-86
2022/10/15 02:31:03;;;;;;;;;;;19.50;64.00;;;;;;4994096;28;19921;-85
2022/10/15 02:33:31;;;;;;;;;;;19.30;64.00;;;;;;4975087;28;22016;-88
2022/10/15 02:35:57;;;;;;;;;;;19.30;63.90;;;;;;4975923;28;19925;-87
2022/10/15 02:38:23;;;;;;;;;;;19.20;64.00;;;;;;4995990;28;19922;-85
2022/10/15 02:40:49;;;;;;;;;;;19.20;64.20;;;;;;4976255;28;20054;-88
2022/10/15 02:43:17;;;;;;;;;;;19.20;64.30;;;;;;4977316;28;20029;-87
2022/10/15 02:45:43;;;;;;;;;;;19.30;64.40;;;;;;4975878;28;19925;-86
2022/10/15 02:48:08;;;;;;;;;;;19.30;64.60;;;;;;4992866;28;19914;-87
2022/10/15 02:50:33;;;;;;;;;;;19.30;64.60;;;;;;4993126;28;20376;-87
2022/10/15 02:52:59;;;;;;;;;;;19.30;64.70;;;;;;4972723;28;19911;-85
2022/10/15 02:55:25;;;;;;;;;;;19.30;64.60;;;;;;4958175;28;19941;-86
2022/10/15 02:57:50;;;;;;;;;;;19.30;64.60;;;;;;4973652;28;20040;-87
2022/10/15 03:00:17;;;;;;;;;;;19.30;64.50;;;;;;4993848;28;19973;-87
2022/10/15 03:02:43;;;;;;;;;;;19.30;64.20;;;;;;4993739;28;19926;-86
2022/10/15 03:05:08;;;;;;;;;;;19.10;63.90;;;;;;4972366;28;19910;-86
2022/10/15 03:07:34;;;;;;;;;;;19.10;63.80;;;;;;4958501;28;19928;-87
2022/10/15 03:09:59;;;;;;;;;;;19.00;63.90;;;;;;4992414;28;19914;-87
2022/10/15 03:12:25;;;;;;;;;;;19.00;64.10;;;;;;4975930;28;19964;-87
2022/10/15 03:14:51;;;;;;;;;;;19.10;64.20;;;;;;4975480;28;19910;-87
2022/10/15 03:17:16;;;;;;;;;;;19.10;64.40;;;;;;4996226;28;19926;-87
2022/10/15 03:19:42;;;;;;;;;;;19.20;64.50;;;;;;4994411;28;20439;-87
2022/10/15 03:22:08;;;;;;;;;;;19.20;64.50;;;;;;4976554;28;19921;-86
2022/10/15 03:24:33;;;;;;;;;;;19.30;64.50;;;;;;4975900;28;19925;-89
2022/10/15 03:26:59;;;;;;;;;;;19.30;64.50;;;;;;4994634;28;20372;-87
2022/10/15 03:29:24;;;;;;;;;;;19.30;64.40;;;;;;4992473;28;19910;-87
2022/10/15 03:31:50;;;;;;;;;;;19.30;64.40;;;;;;4975424;28;20012;-88
2022/10/15 03:34:16;;;;;;;;;;;19.30;64.30;;;;;;4992340;28;19914;-87
2022/10/15 03:36:41;;;;;;;;;;;19.30;64.10;;;;;;4974749;28;19967;-86
2022/10/15 03:39:07;;;;;;;;;;;19.20;64.00;;;;;;4974745;28;19976;-85
2022/10/15 03:41:33;;;;;;;;;;;19.10;63.80;;;;;;4991616;28;19973;-85
2022/10/15 03:44:02;;;;;;;;;;;19.10;63.80;;;;;;4992292;28;20325;-86
2022/10/15 03:46:28;;;;;;;;;;;19.10;63.60;;;;;;4987074;28;19925;-88
2022/10/15 03:48:53;;;;;;;;;;;19.00;63.50;;;;;;5011819;28;19941;-88
2022/10/15 03:51:19;;;;;;;;;;;18.90;63.40;;;;;;5010516;28;19924;-87
2022/10/15 03:53:44;;;;;;;;;;;18.80;63.20;;;;;;5006983;28;19993;-85
2022/10/15 03:56:10;;;;;;;;;;;18.70;63.00;;;;;;4974605;28;19918;-87
2022/10/15 03:58:36;;;;;;;;;;;18.60;62.80;;;;;;4989504;28;19964;-86
2022/10/15 04:01:01;;;;;;;;;;;18.50;62.60;;;;;;4996241;28;19918;-85
2022/10/15 04:03:27;;;;;;;;;;;18.40;62.60;;;;;;5007815;28;19909;-87
2022/10/15 04:05:52;;;;;;;;;;;18.30;62.60;;;;;;5017208;28;19917;-87
2022/10/15 04:08:18;;;;;;;;;;;18.30;62.80;;;;;;4995969;28;19914;-85
2022/10/15 04:10:43;;;;;;;;;;;18.30;63.00;;;;;;5011742;28;19922;-85
2022/10/15 04:13:09;;;;;;;;;;;18.20;63.20;;;;;;5011109;28;19910;-86
2022/10/15 04:15:37;;;;;;;;;;;18.20;63.40;;;;;;4993372;28;20012;-87
2022/10/15 04:18:03;;;;;;;;;;;18.20;63.50;;;;;;5011352;28;19960;-87
2022/10/15 04:20:28;;;;;;;;;;;18.20;63.70;;;;;;4994489;28;20015;-87
2022/10/15 04:22:55;;;;;;;;;;;18.20;63.70;;;;;;5010981;28;19909;-87
2022/10/15 04:25:20;;;;;;;;;;;18.20;63.70;;;;;;4995463;28;19917;-88
2022/10/15 04:27:45;;;;;;;;;;;18.20;63.60;;;;;;5011293;28;19920;-87
2022/10/15 04:30:11;;;;;;;;;;;18.10;63.50;;;;;;5002856;28;20512;-86
2022/10/15 04:32:37;;;;;;;;;;;18.10;63.50;;;;;;4975760;28;19914;-86
2022/10/15 04:35:02;;;;;;;;;;;18.10;63.40;;;;;;4991049;28;19972;-87
2022/10/15 04:37:28;;;;;;;;;;;18.00;63.40;;;;;;4993459;28;19929;-87
2022/10/15 04:39:54;;;;;;;;;;;18.10;63.40;;;;;;4979101;28;19910;-87
2022/10/15 04:42:19;;;;;;;;;;;18.00;63.40;;;;;;4972592;28;19973;-87
2022/10/15 04:44:45;;;;;;;;;;;18.00;63.40;;;;;;4981237;28;20328;-87
2022/10/15 04:47:10;;;;;;;;;;;18.00;63.40;;;;;;4991983;28;19941;-86
2022/10/15 04:49:36;;;;;;;;;;;18.00;63.50;;;;;;4991640;28;19910;-87
2022/10/15 04:52:01;;;;;;;;;;;18.00;63.40;;;;;;4987599;28;19932;-86
2022/10/15 04:54:27;;;;;;;;;;;17.90;63.40;;;;;;4980043;28;19914;-85
2022/10/15 04:56:52;;;;;;;;;;;17.80;63.40;;;;;;4995749;28;19917;-88
2022/10/15 04:59:17;;;;;;;;;;;17.80;63.40;;;;;;4994708;28;19921;-86
2022/10/15 05:01:43;;;;;;;;;;;17.80;63.40;;;;;;4977992;28;19969;-86
2022/10/15 05:04:10;;;;;;;;;;;17.80;63.40;;;;;;4995514;28;19910;-85
2022/10/15 05:06:36;;;;;;;;;;;17.80;63.40;;;;;;4978161;28;19918;-87
2022/10/15 05:09:01;;;;;;;;;;;17.80;63.40;;;;;;4979619;28;20016;-86
2022/10/15 05:11:27;;;;;;;;;;;17.70;63.30;;;;;;4977095;28;19928;-86
2022/10/15 05:13:56;;;;;;;;;;;17.70;63.10;;;;;;4977738;28;19972;-86
2022/10/15 05:16:23;;;;;;;;;;;17.60;63.00;;;;;;4995096;28;20486;-86
2022/10/15 05:18:50;;;;;;;;;;;17.50;62.90;;;;;;4994958;28;19960;-87
2022/10/15 05:21:16;;;;;;;;;;;17.50;63.00;;;;;;4979119;28;19926;-87
2022/10/15 05:23:43;;;;;;;;;;;17.50;62.90;;;;;;4977497;28;20544;-86
2022/10/15 05:26:12;;;;;;;;;;;17.50;63.00;;;;;;4995137;28;20317;-86
2022/10/15 05:28:38;;;;;;;;;;;17.50;63.10;;;;;;5008765;28;19910;-87
2022/10/15 05:31:07;;;;;;;;;;;17.50;63.40;;;;;;5011591;28;19944;-86
2022/10/15 05:33:33;;;;;;;;;;;17.60;63.50;;;;;;4978601;28;19991;-88
2022/10/15 05:36:12;;;;;;;;;;;17.60;63.60;;;;;;4996959;28;20400;-86
2022/10/15 05:38:38;;;;;;;;;;;17.70;63.50;;;;;;4994457;28;19961;-87
2022/10/15 05:41:03;;;;;;;;;;;17.60;63.40;;;;;;4995616;28;19928;-87
2022/10/15 05:43:29;;;;;;;;;;;17.60;63.20;;;;;;4978923;28;19945;-87
2022/10/15 05:45:55;;;;;;;;;;;17.50;63.10;;;;;;4996315;28;19944;-86
2022/10/15 05:48:20;;;;;;;;;;;17.50;63.00;;;;;;4976602;28;19921;-87
2022/10/15 05:50:45;;;;;;;;;;;17.50;62.80;;;;;;4995358;28;19921;-87
2022/10/15 05:53:11;;;;;;;;;;;17.50;63.00;;;;;;4994410;28;20482;-86
2022/10/15 05:55:37;;;;;;;;;;;17.50;63.10;;;;;;4976247;28;19952;-87
2022/10/15 05:58:03;;;;;;;;;;;17.50;63.20;;;;;;4976652;28;20018;-87
2022/10/15 06:00:28;;;;;;;;;;;17.50;63.40;;;;;;4977016;28;19925;-86
2022/10/15 06:02:54;;;;;;;;;;;17.50;63.60;;;;;;4976547;28;19939;-85
2022/10/15 06:05:19;;;;;;;;;;;17.60;63.70;;;;;;4992724;28;19917;-86
2022/10/15 06:07:45;;;;;;;;;;;17.60;64.00;;;;;;4976001;28;19921;-86
2022/10/15 06:10:10;;;;;;;;;;;17.70;64.20;;;;;;4994064;28;19914;-87
2022/10/15 06:12:38;;;;;;;;;;;17.80;64.40;;;;;;4976537;28;20492;-87
2022/10/15 06:15:04;;;;;;;;;;;17.80;64.60;;;;;;4976569;28;19910;-86
2022/10/15 06:17:29;;;;;;;;;;;17.90;64.70;;;;;;4975979;28;19969;-88
2022/10/15 06:19:55;;;;;;;;;;;18.00;64.80;;;;;;4993609;28;19948;-85
2022/10/15 06:22:20;;;;;;;;;;;18.10;64.90;;;;;;4995343;28;19917;-87
2022/10/15 06:24:45;;;;;;;;;;;18.10;64.90;;;;;;4976388;28;19913;-88
2022/10/15 06:27:12;;;;;;;;;;;18.30;64.90;;;;;;4995547;28;19922;-86
2022/10/15 06:29:38;;;;;;;;;;;18.30;64.80;;;;;;5013096;28;19932;-86
2022/10/15 06:32:03;;;;;;;;;;;18.40;64.70;;;;;;5016186;28;20447;-88
2022/10/15 06:34:29;;;;;;;;;;;18.50;64.70;;;;;;5000759;28;19917;-86
2022/10/15 06:36:54;;;;;;;;;;;18.60;64.60;;;;;;4992131;28;20396;-85
2022/10/15 06:39:20;;;;;;;;;;;18.70;64.60;;;;;;4978951;28;20409;-86
2022/10/15 06:41:45;;;;;;;;;;;18.70;64.50;;;;;;4976447;28;19980;-86
2022/10/15 06:44:11;;;;;;;;;;;18.80;64.50;;;;;;4993421;28;19918;-87
2022/10/15 06:46:36;;;;;;;;;;;18.80;64.50;;;;;;4978344;28;19918;-85
2022/10/15 06:49:02;;;;;;;;;;;18.90;64.50;;;;;;4994605;28;19918;-87
2022/10/15 06:51:27;;;;;;;;;;;19.00;64.60;;;;;;4993712;28;20350;-86
2022/10/15 06:53:53;;;;;;;;;;;19.10;64.60;;;;;;4993026;28;19948;-86
2022/10/15 06:56:18;;;;;;;;;;;19.20;64.50;;;;;;4993278;28;20411;-86
2022/10/15 06:58:44;;;;;;;;;;;19.30;64.50;;;;;;4993351;28;19917;-87
2022/10/15 07:01:10;;;;;;;;;;;19.30;64.50;;;;;;4976452;28;19918;-87
2022/10/15 07:03:37;;;;;;;;;;;19.30;64.50;;;;;;4976746;28;20398;-87
2022/10/15 07:06:04;;;;;;;;;;;19.40;64.60;;;;;;4975877;28;19918;-87
2022/10/15 07:08:29;;;;;;;;;;;19.50;64.70;;;;;;4993457;28;20368;-86
2022/10/15 07:10:55;;;;;;;;;;;19.60;64.70;;;;;;4993547;28;19928;-87
2022/10/15 07:13:20;;;;;;;;;;;19.80;64.70;;;;;;4997514;28;20301;-88
2022/10/15 07:15:48;;;;;;;;;;;19.80;64.60;;;;;;4991481;28;19980;-86
2022/10/15 07:18:14;;;;;;;;;;;19.90;64.50;;;;;;4975497;28;19922;-88
2022/10/15 07:20:39;;;;;;;;;;;20.00;64.60;;;;;;4974753;28;20391;-88
2022/10/15 07:23:04;;;;;;;;;;;20.10;64.60;;;;;;4991548;28;20426;-88
2022/10/15 07:25:30;;;;;;;;;;;20.20;64.60;;;;;;4967191;28;20332;-87
2022/10/15 07:27:56;;;;;;;;;;;20.20;64.60;;;;;;4992713;28;19933;-87
2022/10/15 07:30:22;;;;;;;;;;;20.30;64.50;;;;;;4974657;28;19957;-86
2022/10/15 07:32:47;;;;;;;;;;;20.30;64.30;;;;;;4992466;28;19914;-86
2022/10/15 07:35:13;;;;;;;;;;;20.40;64.30;;;;;;4994033;28;20280;-88
2022/10/15 07:37:39;;;;;;;;;;;20.40;64.30;;;;;;4955603;28;19961;-87
2022/10/15 07:40:04;;;;;;;;;;;20.40;64.20;;;;;;4974077;28;19918;-88
2022/10/15 07:42:30;;;;;;;;;;;20.50;64.30;;;;;;4989312;28;19968;-87
2022/10/15 07:44:56;;;;;;;;;;;20.60;64.30;;;;;;5005009;28;19918;-87
2022/10/15 07:47:22;;;;;;;;;;;20.60;64.30;;;;;;4997961;28;19914;-87
2022/10/15 07:49:47;;;;;;;;;;;20.70;64.30;;;;;;4994239;28;19910;-86
2022/10/15 07:52:13;;;;;;;;;;;20.70;64.10;;;;;;4996547;28;19925;-87
2022/10/15 07:54:38;;;;;;;;;;;20.70;64.10;;;;;;4974725;28;19910;-88
2022/10/15 07:57:05;;;;;;;;;;;20.80;64.20;;;;;;4974314;28;20017;-88
2022/10/15 07:59:32;;;;;;;;;;;20.90;64.20;;;;;;4961492;28;19921;-85
2022/10/15 08:01:57;;;;;;;;;;;21.00;64.40;;;;;;5012366;28;19925;-87
2022/10/15 08:04:23;;;;;;;;;;;21.20;64.50;;;;;;5011917;28;19909;-88
2022/10/15 08:06:48;;;;;;;;;;;21.30;64.40;;;;;;5011878;28;20011;-86
2022/10/15 08:09:14;;;;;;;;;;;21.30;64.30;;;;;;5011196;28;20431;-87
2022/10/15 08:11:40;;;;;;;;;;;21.40;64.10;;;;;;4993384;28;19925;-87
2022/10/15 08:14:05;;;;;;;;;;;21.50;64.20;;;;;;5011819;28;20752;-88
2022/10/15 08:16:31;;;;;;;;;;;21.60;64.40;;;;;;4994052;28;19917;-87
2022/10/15 08:18:56;;;;;;;;;;;21.80;64.50;;;;;;4991974;28;20008;-87
2022/10/15 08:21:22;;;;;;;;;;;21.80;64.30;;;;;;4993736;28;19921;-86
2022/10/15 08:23:47;;;;;;;;;;;21.90;64.10;;;;;;4974404;28;20001;-88
2022/10/15 08:26:13;;;;;;;;;;;22.00;64.10;;;;;;4977662;28;19918;-86
2022/10/15 08:28:38;;;;;;;;;;;22.10;64.20;;;;;;4974078;28;19914;-89
2022/10/15 08:31:04;;;;;;;;;;;22.20;64.10;;;;;;4979824;28;19918;-87
2022/10/15 08:33:30;;;;;;;;;;;22.20;64.10;;;;;;4974914;28;20373;-87
2022/10/15 08:35:55;;;;;;;;;;;22.30;63.70;;;;;;4991639;28;19922;-87
2022/10/15 08:38:21;;;;;;;;;;;22.30;63.70;;;;;;4973912;28;19928;-87
2022/10/15 08:40:47;;;;;;;;;;;22.30;63.90;;;;;;4990859;28;19925;-88
2022/10/15 08:43:17;;;;;;;;;;;22.40;64.20;;;;;;4991488;28;20400;-87
2022/10/15 08:45:44;;;;;;;;;;;22.50;64.10;;;;;;4967855;28;20537;-88
2022/10/15 08:48:12;;;;;;;;;;;22.50;64.20;;;;;;4988473;28;19925;-87
2022/10/15 08:50:46;;;;;;;;;;;22.50;64.10;;;;;;4968327;28;19960;-86
2022/10/15 08:53:14;;;;;;;;;;;22.50;64.20;;;;;;4973652;28;19970;-87
2022/10/15 08:55:41;;;;;;;;;;;22.70;65.90;;;;;;4971605;28;19922;-86
2022/10/15 08:58:19;;;;;;;;;;;23.20;68.40;;;;;;4990308;28;19926;-88
2022/10/15 09:00:53;;;;;;;;;;;23.80;69.40;;;;;;4988195;28;19937;-89
2022/10/15 09:03:30;;;;;;;;;;;24.50;69.40;;;;;;4988652;28;19914;-89
2022/10/15 09:06:00;;;;;;;;;;;25.20;68.80;;;;;;4971200;28;19972;-88
2022/10/15 09:08:32;;;;;;;;;;;25.70;67.40;;;;;;4973798;28;19924;-88
2022/10/15 09:11:18;;;;;;;;;;;26.10;66.40;;;;;;5005803;28;19929;-88
2022/10/15 09:13:44;;;;;;;;;;;26.50;65.80;;;;;;5007634;28;19921;-87
2022/10/15 09:16:12;;;;;;;;;;;26.80;64.70;;;;;;5007362;28;20017;-87
2022/10/15 09:18:40;;;;;;;;;;;27.10;63.80;;;;;;5007685;28;19921;-87
2022/10/15 09:21:08;;;;;;;;;;;27.30;63.60;;;;;;4987904;28;19922;-87
2022/10/15 09:23:34;;;;;;;;;;;27.50;63.10;;;;;;4990202;28;19960;-86
2022/10/15 09:26:06;;;;;;;;;;;27.70;63.00;;;;;;4994713;28;19921;-87
2022/10/15 09:28:39;;;;;;;;;;;27.80;61.50;;;;;;4988053;28;20012;-87
2022/10/15 09:31:07;;;;;;;;;;;27.90;60.40;;;;;;4988259;28;19925;-86
2022/10/15 09:33:38;;;;;;;;;;;27.90;59.20;;;;;;4970661;28;20413;-88
2022/10/15 09:36:23;;;;;;;;;;;28.00;58.20;;;;;;4988864;28;20455;-87
2022/10/15 09:38:54;;;;;;;;;;;28.20;60.50;;;;;;4987580;28;19930;-89
2022/10/15 09:41:38;;;;;;;;;;;28.50;58.90;;;;;;4992754;28;19976;-88
2022/10/15 09:44:10;;;;;;;;;;;28.60;57.40;;;;;;4991689;28;19951;-87
2022/10/15 09:46:41;;;;;;;;;;;28.80;58.00;;;;;;4973609;28;19922;-89
2022/10/15 09:49:10;;;;;;;;;;;29.10;57.40;;;;;;4991286;28;19940;-88
2022/10/15 09:51:39;;;;;;;;;;;29.10;53.40;;;;;;4991747;28;19922;-89
2022/10/15 09:54:04;;;;;;;;;;;29.10;53.00;;;;;;4973969;28;19913;-88
2022/10/15 09:56:38;;;;;;;;;;;29.10;53.90;;;;;;4974592;28;20278;-86
2022/10/15 09:59:04;;;;;;;;;;;29.10;53.10;;;;;;4992268;28;19999;-86
2022/10/15 10:01:30;;;;;;;;;;;29.30;53.00;;;;;;4975263;28;20341;-85
2022/10/15 10:04:10;;;;;;;;;;;29.30;51.30;;;;;;4973980;28;20000;-87
2022/10/15 10:06:45;;;;;;;;;;;29.30;48.50;;;;;;4991948;28;20563;-88
2022/10/15 10:09:14;;;;;;;;;;;29.30;46.60;;;;;;4991149;28;19914;-87
2022/10/15 10:11:51;;;;;;;;;;;29.40;46.30;;;;;;4991164;28;19960;-87
2022/10/15 10:14:22;;;;;;;;;;;29.00;44.70;;;;;;4991454;28;19917;-85
2022/10/15 10:17:04;;;;;;;;;;;28.70;45.30;;;;;;4974615;28;19929;-87
2022/10/15 10:19:30;;;;;;;;;;;28.30;45.10;;;;;;4977419;28;19933;-86
2022/10/15 10:22:04;;;;;;;;;;;28.00;45.70;;;;;;4975573;28;19914;-87
2022/10/15 10:24:33;;;;;;;;;;;27.70;45.70;;;;;;4974567;28;19913;-88
2022/10/15 10:26:59;;;;;;;;;;;27.40;46.40;;;;;;4991157;28;19976;-90
2022/10/15 10:29:25;;;;;;;;;;;27.20;46.40;;;;;;4994258;28;19914;-88
2022/10/15 10:31:52;;;;;;;;;;;27.10;46.30;;;;;;4972958;28;19945;-88
2022/10/15 10:34:23;;;;;;;;;;;27.00;47.30;;;;;;4990835;28;19921;-89
2022/10/15 10:36:49;;;;;;;;;;;26.80;46.30;;;;;;4973200;28;20365;-86
2022/10/15 10:39:21;;;;;;;;;;;26.70;46.50;;;;;;4974456;28;19936;-87
2022/10/15 10:41:47;;;;;;;;;;;26.40;45.30;;;;;;4990825;28;19922;-86
2022/10/15 10:44:27;;;;;;;;;;;26.50;46.80;;;;;;4991305;28;19927;-86
2022/10/15 10:47:01;;;;;;;;;;;26.90;46.50;;;;;;4990276;28;19933;-88
2022/10/15 10:49:31;;;;;;;;;;;27.50;45.80;;;;;;5000612;28;19950;-85
2022/10/15 10:51:57;;;;;;;;;;;27.90;45.00;;;;;;4989557;28;20000;-88
2022/10/15 10:54:23;;;;;;;;;;;28.00;43.80;;;;;;4992762;28;20361;-89
2022/10/15 10:56:49;;;;;;;;;;;28.10;45.00;;;;;;4974973;28;20507;-89
2022/10/15 10:59:18;;;;;;;;;;;28.50;46.40;;;;;;4973438;28;19925;-88
2022/10/15 11:01:44;;;;;;;;;;;28.80;46.10;;;;;;4991048;28;20012;-89
2022/10/15 11:04:13;;;;;;;;;;;29.30;45.80;;;;;;4990635;28;20017;-89
2022/10/15 11:06:51;;;;;;;;;;;29.30;41.20;;;;;;4972741;28;20373;-89
2022/10/15 11:09:23;;;;;;;;;;;29.60;42.50;;;;;;4990322;28;20015;-87
2022/10/15 11:11:57;;;;;;;;;;;29.80;40.90;;;;;;4973925;28;20325;-87
2022/10/15 11:14:28;;;;;;;;;;;30.00;40.00;;;;;;4993287;28;20004;-87
2022/10/15 11:17:00;;;;;;;;;;;30.20;40.10;;;;;;4992160;28;19928;-86
2022/10/15 11:19:33;;;;;;;;;;;30.50;39.30;;;;;;4980944;28;19922;-88
2022/10/15 11:22:05;;;;;;;;;;;30.60;38.00;;;;;;5004706;28;19922;-86
2022/10/15 11:24:49;;;;;;;;;;;30.60;37.80;;;;;;4989700;28;20598;-89
2022/10/15 11:27:14;;;;;;;;;;;30.40;38.00;;;;;;4975564;28;19917;-89
2022/10/15 11:29:40;;;;;;;;;;;30.60;38.50;;;;;;4975754;28;19914;-89
2022/10/15 11:32:24;;;;;;;;;;;30.90;38.00;;;;;;5004449;28;19922;-86
2022/10/15 11:34:55;;;;;;;;;;;31.00;36.80;;;;;;4994864;28;19945;-90
2022/10/15 11:37:33;;;;;;;;;;;31.00;35.60;;;;;;4989656;28;19925;-87
2022/10/15 11:40:05;;;;;;;;;;;31.00;35.60;;;;;;4989398;28;20557;-86
2022/10/15 11:42:40;;;;;;;;;;;31.10;36.20;;;;;;4988918;28;19918;-87
2022/10/15 11:45:24;;;;;;;;;;;31.20;35.30;;;;;;4989378;28;19913;-88
2022/10/15 11:47:55;;;;;;;;;;;31.20;35.30;;;;;;4989339;28;19917;-89
2022/10/15 11:50:20;;;;;;;;;;;31.00;34.30;;;;;;4971895;28;20341;-88
2022/10/15 11:53:09;;;;;;;;;;;30.60;34.70;;;;;;4992670;28;19965;-89
2022/10/15 11:55:44;;;;;;;;;;;30.40;35.60;;;;;;4971449;28;19918;-87
2022/10/15 11:58:16;;;;;;;;;;;30.40;35.40;;;;;;4971984;28;20024;-90
2022/10/15 12:00:48;;;;;;;;;;;30.40;35.00;;;;;;4972000;28;19945;-89
2022/10/15 12:03:20;;;;;;;;;;;30.40;35.00;;;;;;4971382;28;19914;-87
2022/10/15 12:05:59;;;;;;;;;;;30.40;35.60;;;;;;4990171;28;19922;-89
2022/10/15 12:08:28;;;;;;;;;;;30.00;35.60;;;;;;4971441;28;19913;-89
2022/10/15 12:11:05;;;;;;;;;;;29.50;36.10;;;;;;4973676;28;20404;-89
2022/10/15 12:13:40;;;;;;;;;;;29.00;36.40;;;;;;4972038;28;19918;-86
2022/10/15 12:16:11;;;;;;;;;;;28.70;37.60;;;;;;4971669;28;19922;-88
2022/10/15 12:18:36;;;;;;;;;;;28.50;37.60;;;;;;4993090;28;19922;-89
2022/10/15 12:21:02;;;;;;;;;;;28.30;37.90;;;;;;4991216;28;19925;-86
2022/10/15 12:23:34;;;;;;;;;;;28.00;38.30;;;;;;4990670;28;19917;-86
2022/10/15 12:25:59;;;;;;;;;;;27.90;39.00;;;;;;4988493;28;19976;-87
2022/10/15 12:28:28;;;;;;;;;;;27.80;39.20;;;;;;4988430;28;19918;-86
2022/10/15 12:30:54;;;;;;;;;;;27.70;39.40;;;;;;4970820;28;19928;-90
2022/10/15 12:33:20;;;;;;;;;;;27.70;39.50;;;;;;4990334;28;19913;-86
2022/10/15 12:35:52;;;;;;;;;;;27.70;39.80;;;;;;4988237;28;19968;-90
2022/10/15 12:38:21;;;;;;;;;;;27.70;39.60;;;;;;4972307;28;19922;-88
2022/10/15 12:40:53;;;;;;;;;;;27.50;39.60;;;;;;4987145;28;19922;-88
2022/10/15 12:43:20;;;;;;;;;;;27.40;40.10;;;;;;4986116;28;19957;-86
2022/10/15 12:45:53;;;;;;;;;;;27.40;40.30;;;;;;4972591;28;19926;-88
2022/10/15 12:48:39;;;;;;;;;;;27.40;40.60;;;;;;4989019;28;20742;-89
2022/10/15 12:51:20;;;;;;;;;;;27.50;40.70;;;;;;4977775;28;19922;-86
2022/10/15 12:53:46;;;;;;;;;;;27.60;40.50;;;;;;4989111;28;20373;-90
2022/10/15 12:56:21;;;;;;;;;;;27.60;40.40;;;;;;4989574;28;19926;-86
2022/10/15 12:58:51;;;;;;;;;;;27.60;40.50;;;;;;4974712;28;19922;-88
2022/10/15 13:01:19;;;;;;;;;;;27.50;40.50;;;;;;4989954;28;19922;-86
2022/10/15 13:03:47;;;;;;;;;;;27.40;40.50;;;;;;4988764;28;20686;-87
2022/10/15 13:06:13;;;;;;;;;;;27.20;41.10;;;;;;4989006;28;19933;-89
2022/10/15 13:08:41;;;;;;;;;;;27.10;42.40;;;;;;4990306;28;19918;-90
2022/10/15 13:11:17;;;;;;;;;;;26.80;44.30;;;;;;4988958;28;19952;-87
2022/10/15 13:13:42;;;;;;;;;;;26.50;45.10;;;;;;4971333;28;19929;-88
2022/10/15 13:16:08;;;;;;;;;;;26.30;45.60;;;;;;4984124;28;19988;-89
2022/10/15 13:18:33;;;;;;;;;;;26.20;45.20;;;;;;4973347;28;20012;-86
2022/10/15 13:20:59;;;;;;;;;;;26.10;45.60;;;;;;4992209;28;19929;-88
2022/10/15 13:23:27;;;;;;;;;;;26.10;45.50;;;;;;4992150;28;20365;-86
2022/10/15 13:26:12;;;;;;;;;;;26.10;45.40;;;;;;4976159;28;20047;-86
2022/10/15 13:28:40;;;;;;;;;;;26.00;45.90;;;;;;4980032;28;19928;-85
2022/10/15 13:31:26;;;;;;;;;;;25.70;47.40;;;;;;4976380;28;19941;-90
2022/10/15 13:33:53;;;;;;;;;;;25.30;48.60;;;;;;4978276;28;19929;-89
2022/10/15 13:36:20;;;;;;;;;;;25.10;49.30;;;;;;4976035;28;19953;-87
2022/10/15 13:38:51;;;;;;;;;;;25.00;50.00;;;;;;4979474;28;19948;-89
2022/10/15 13:41:21;;;;;;;;;;;24.80;50.90;;;;;;4975686;28;19917;-85
2022/10/15 13:43:51;;;;;;;;;;;24.70;51.50;;;;;;4974351;28;19929;-85
2022/10/15 13:46:16;;;;;;;;;;;24.60;51.70;;;;;;4975058;28;20021;-86
2022/10/15 13:48:42;;;;;;;;;;;24.70;51.80;;;;;;4977328;28;20023;-86
2022/10/15 13:51:09;;;;;;;;;;;24.70;51.70;;;;;;4991925;28;20372;-90
2022/10/15 13:53:36;;;;;;;;;;;24.70;51.60;;;;;;4986688;28;19929;-88
2022/10/15 13:56:22;;;;;;;;;;;24.70;51.70;;;;;;4992893;28;19921;-89
2022/10/15 13:58:47;;;;;;;;;;;24.70;51.80;;;;;;4992812;28;19922;-89
2022/10/15 14:01:14;;;;;;;;;;;24.70;51.90;;;;;;4995047;28;19922;-90
2022/10/15 14:03:49;;;;;;;;;;;24.80;52.00;;;;;;4991599;28;20016;-86
2022/10/15 14:06:17;;;;;;;;;;;25.00;51.80;;;;;;4992849;28;19926;-87
2022/10/15 14:08:43;;;;;;;;;;;25.10;51.70;;;;;;4974771;28;19921;-87
2022/10/15 14:11:10;;;;;;;;;;;25.20;51.30;;;;;;4973482;28;19951;-90
2022/10/15 14:13:42;;;;;;;;;;;25.20;50.90;;;;;;4978491;28;19960;-88
2022/10/15 14:16:22;;;;;;;;;;;25.20;50.80;;;;;;4974772;28;19929;-91
2022/10/15 14:18:50;;;;;;;;;;;25.20;50.90;;;;;;4974111;28;19922;-86
2022/10/15 14:21:17;;;;;;;;;;;25.20;51.40;;;;;;4992049;28;19921;-88
2022/10/15 14:23:44;;;;;;;;;;;25.00;52.60;;;;;;4976669;28;19914;-86